Time;durP1;ratioP1;P1;durP2;ratioP2;P2;SDS_P1;SDS_P2;PMS_P1;PMS_P2;Temp;Humidity;BMP_temperature;BMP_pressure;BME280_temperature;BME280_humidity;BME280_pressure;Samples;Min_cycle;Max_cycle;Signal;HPM_P1;HPM_P2
2022/01/29 00:02:02;;;;;;;5.85;3.38;;;7.80;94.90;;;;;;5060259;28;20024;-48
2022/01/29 00:04:27;;;;;;;9.70;3.72;;;7.80;94.90;;;;;;5058895;28;20025;-48
2022/01/29 00:06:53;;;;;;;5.55;3.00;;;7.80;94.90;;;;;;5056702;28;20025;-48
2022/01/29 00:09:19;;;;;;;7.03;2.95;;;7.90;95.00;;;;;;5059107;28;20342;-48
2022/01/29 00:11:45;;;;;;;5.80;2.97;;;7.80;94.90;;;;;;5057848;28;20062;-48
2022/01/29 00:14:11;;;;;;;9.00;4.55;;;7.80;94.90;;;;;;5061046;28;20025;-48
2022/01/29 00:16:37;;;;;;;7.78;3.65;;;7.80;94.90;;;;;;5060080;28;20076;-48
2022/01/29 00:19:04;;;;;;;6.30;3.05;;;7.80;95.00;;;;;;5057760;28;20454;-48
2022/01/29 00:21:29;;;;;;;12.85;3.50;;;7.80;95.00;;;;;;5060509;28;20024;-48
2022/01/29 00:23:55;;;;;;;6.07;3.10;;;7.80;95.00;;;;;;5062577;28;20496;-49
2022/01/29 00:26:23;;;;;;;8.18;3.08;;;7.80;95.00;;;;;;5058427;28;20037;-48
2022/01/29 00:28:51;;;;;;;8.35;2.83;;;7.80;95.00;;;;;;5058391;28;20048;-48
2022/01/29 00:31:17;;;;;;;5.82;2.97;;;7.80;95.00;;;;;;5058832;28;20067;-48
2022/01/29 00:33:42;;;;;;;4.97;2.85;;;7.80;95.00;;;;;;5058014;28;20072;-48
2022/01/29 00:36:08;;;;;;;7.32;3.00;;;7.80;95.00;;;;;;5062027;28;20048;-48
2022/01/29 00:38:35;;;;;;;8.32;3.28;;;7.80;95.00;;;;;;5060070;28;20021;-48
2022/01/29 00:41:01;;;;;;;8.60;3.47;;;7.80;95.00;;;;;;5061079;28;20032;-48
2022/01/29 00:43:27;;;;;;;7.95;2.60;;;7.80;95.30;;;;;;5053586;28;20029;-48
2022/01/29 00:45:52;;;;;;;4.90;2.70;;;7.80;95.00;;;;;;5061653;28;20381;-48
2022/01/29 00:48:18;;;;;;;6.97;3.03;;;7.80;95.00;;;;;;5057289;28;20111;-48
2022/01/29 00:50:44;;;;;;;7.47;2.90;;;7.80;95.00;;;;;;5058182;28;20040;-48
2022/01/29 00:53:09;;;;;;;11.55;3.72;;;7.80;95.00;;;;;;5059533;28;20108;-48
2022/01/29 00:55:35;;;;;;;6.93;3.13;;;7.80;95.00;;;;;;5059111;28;20025;-48
2022/01/29 00:58:00;;;;;;;6.75;3.45;;;7.80;95.00;;;;;;5057895;28;20141;-48
2022/01/29 01:00:26;;;;;;;9.23;3.38;;;7.80;95.00;;;;;;5059939;28;20028;-48
2022/01/29 01:02:52;;;;;;;6.85;2.80;;;7.80;95.00;;;;;;5059252;28;20061;-48
2022/01/29 01:05:17;;;;;;;5.80;2.90;;;7.80;95.00;;;;;;5056523;28;20405;-48
2022/01/29 01:07:44;;;;;;;7.28;2.50;;;7.80;95.40;;;;;;5060583;28;20036;-48
2022/01/29 01:10:12;;;;;;;5.20;2.58;;;7.80;95.10;;;;;;5059229;28;20502;-49
2022/01/29 01:12:38;;;;;;;4.00;2.42;;;7.80;95.00;;;;;;5056144;28;20553;-48
2022/01/29 01:15:05;;;;;;;8.27;3.53;;;7.80;95.10;;;;;;5060222;28;20039;-48
2022/01/29 01:17:30;;;;;;;6.50;2.47;;;7.70;95.10;;;;;;5061675;28;20032;-48
2022/01/29 01:19:56;;;;;;;3.83;1.75;;;7.80;95.00;;;;;;5054645;28;20361;-48
2022/01/29 01:22:22;;;;;;;4.93;2.45;;;7.80;95.10;;;;;;5057451;28;20079;-48
2022/01/29 01:24:47;;;;;;;3.92;1.60;;;7.80;95.10;;;;;;5059585;28;20033;-48
2022/01/29 01:27:14;;;;;;;3.95;2.13;;;7.80;95.10;;;;;;5055834;28;20025;-48
2022/01/29 01:29:40;;;;;;;7.38;2.40;;;7.70;94.90;;;;;;5058267;28;20037;-48
2022/01/29 01:32:10;;;;;;;3.85;2.13;;;7.70;94.90;;;;;;5058404;28;20013;-49
2022/01/29 01:34:38;;;;;;;;;;;7.70;94.90;;;;;;5058293;28;20029;-48
2022/01/29 01:37:09;;;;;;;3.97;2.03;;;7.70;95.00;;;;;;5059274;28;19913;-48
2022/01/29 01:39:37;;;;;;;5.63;1.80;;;7.70;95.00;;;;;;5059843;28;20420;-48
2022/01/29 01:42:05;;;;;;;6.93;2.33;;;7.70;95.00;;;;;;5056940;28;20041;-48
2022/01/29 01:44:43;;;;;;;3.22;1.92;;;7.70;95.00;;;;;;5057736;28;20067;-48
2022/01/29 01:47:09;;;;;;;3.97;2.13;;;7.70;95.00;;;;;;5060827;28;20067;-48
2022/01/29 01:49:36;;;;;;;6.70;2.22;;;7.80;95.00;;;;;;5057947;28;20021;-48
2022/01/29 01:52:02;;;;;;;4.88;2.10;;;7.80;95.10;;;;;;5060931;28;20103;-48
2022/01/29 01:54:29;;;;;;;6.97;2.78;;;7.70;95.00;;;;;;5060147;28;20060;-48
2022/01/29 01:56:55;;;;;;;4.00;2.30;;;7.70;95.00;;;;;;5057011;28;20132;-48
2022/01/29 01:59:21;;;;;;;9.23;2.05;;;7.70;95.00;;;;;;5057571;28;20111;-48
2022/01/29 02:01:47;;;;;;;7.65;2.45;;;7.70;95.00;;;;;;5056645;28;20029;-48
2022/01/29 02:04:12;;;;;;;6.95;2.30;;;7.70;95.00;;;;;;5057273;28;20083;-48
2022/01/29 02:06:38;;;;;;;7.75;2.22;;;7.70;95.30;;;;;;5059913;28;20037;-48
2022/01/29 02:09:04;;;;;;;3.53;2.70;;;7.70;95.00;;;;;;5062299;28;20029;-48
2022/01/29 02:11:30;;;;;;;3.50;1.85;;;7.70;95.00;;;;;;5061875;28;20029;-48
2022/01/29 02:13:57;;;;;;;4.05;2.42;;;7.70;95.00;;;;;;5059556;28;20021;-48
2022/01/29 02:16:23;;;;;;;3.90;2.22;;;7.70;95.00;;;;;;5061737;28;20021;-48
2022/01/29 02:18:49;;;;;;;5.60;2.22;;;7.80;95.00;;;;;;5061969;28;20104;-48
2022/01/29 02:21:16;;;;;;;4.95;2.28;;;7.80;95.00;;;;;;5062530;28;20456;-48
2022/01/29 02:23:41;;;;;;;4.75;2.50;;;7.80;95.00;;;;;;5064824;28;20051;-48
2022/01/29 02:26:07;;;;;;;3.05;2.22;;;7.70;95.00;;;;;;5063603;28;20474;-48
2022/01/29 02:28:33;;;;;;;2.78;2.40;;;7.70;95.00;;;;;;5059611;28;20028;-48
2022/01/29 02:31:02;;;;;;;2.95;2.35;;;7.70;95.00;;;;;;5060674;28;20094;-48
2022/01/29 02:33:30;;;;;;;7.68;2.28;;;7.80;95.00;;;;;;5061866;28;20032;-48
2022/01/29 02:35:56;;;;;;;3.70;2.38;;;7.70;95.00;;;;;;5064434;28;20035;-48
2022/01/29 02:38:24;;;;;;;9.02;2.30;;;7.80;95.10;;;;;;5063588;28;20056;-48
2022/01/29 02:41:05;;;;;;;8.35;2.20;;;7.70;95.00;;;;;;5062608;28;20017;-48
2022/01/29 02:43:39;;;;;;;3.85;2.10;;;7.80;95.10;;;;;;5056680;28;20607;-48
2022/01/29 02:46:21;;;;;;;3.90;1.98;;;7.80;95.10;;;;;;5060093;28;20214;-48
2022/01/29 02:48:48;;;;;;;3.50;2.35;;;7.70;95.00;;;;;;5063026;28;20466;-48
2022/01/29 02:51:14;;;;;;;4.85;2.00;;;7.70;95.00;;;;;;5061745;28;20386;-49
2022/01/29 02:53:40;;;;;;;3.92;2.13;;;7.70;95.00;;;;;;5059958;28;20017;-48
2022/01/29 02:56:07;;;;;;;5.45;1.75;;;7.70;95.00;;;;;;5063452;28;20511;-48
2022/01/29 02:58:33;;;;;;;2.75;1.65;;;7.70;95.00;;;;;;5059830;28;20085;-48
2022/01/29 03:00:59;;;;;;;5.15;1.92;;;7.70;95.00;;;;;;5060071;28;20025;-48
2022/01/29 03:03:25;;;;;;;3.40;1.90;;;7.70;95.00;;;;;;5062717;28;20051;-48
2022/01/29 03:05:51;;;;;;;6.65;1.77;;;7.70;95.00;;;;;;5049952;28;20513;-48
2022/01/29 03:08:18;;;;;;;3.63;1.98;;;7.70;95.00;;;;;;5068243;28;20068;-48
2022/01/29 03:10:46;;;;;;;3.72;1.70;;;7.70;95.10;;;;;;5061679;28;20021;-48
2022/01/29 03:13:13;;;;;;;4.72;1.58;;;7.70;95.00;;;;;;5060185;28;20029;-48
2022/01/29 03:15:38;;;;;;;4.10;1.92;;;7.70;95.40;;;;;;5058257;28;20108;-48
2022/01/29 03:18:04;;;;;;;4.05;2.38;;;7.70;95.00;;;;;;5062924;28;20127;-48
2022/01/29 03:20:30;;;;;;;3.22;1.85;;;7.70;95.00;;;;;;5062193;28;20055;-49
2022/01/29 03:22:56;;;;;;;3.63;1.65;;;7.70;95.00;;;;;;5058497;28;20078;-48
2022/01/29 03:25:22;;;;;;;4.05;1.63;;;7.70;95.00;;;;;;5061089;28;20021;-48
2022/01/29 03:27:48;;;;;;;4.05;1.80;;;7.70;95.00;;;;;;5061669;28;20037;-48
2022/01/29 03:30:13;;;;;;;3.50;2.00;;;7.70;95.00;;;;;;5060279;28;20116;-48
2022/01/29 03:32:39;;;;;;;6.35;1.33;;;7.70;95.00;;;;;;5057455;28;20062;-48
2022/01/29 03:35:06;;;;;;;3.53;2.03;;;7.70;95.00;;;;;;5061819;28;20060;-48
2022/01/29 03:37:31;;;;;;;14.35;2.05;;;7.70;95.00;;;;;;5063004;28;20040;-48
2022/01/29 03:40:00;;;;;;;1.63;1.40;;;7.70;95.00;;;;;;5061504;28;20035;-48
2022/01/29 03:42:28;;;;;;;3.80;1.88;;;7.70;95.40;;;;;;5062099;28;20025;-48
2022/01/29 03:44:55;;;;;;;13.25;2.83;;;7.70;95.00;;;;;;5057028;28;20055;-48
2022/01/29 03:47:20;;;;;;;3.00;1.90;;;7.70;95.00;;;;;;5060901;28;20039;-48
2022/01/29 03:49:46;;;;;;;5.85;2.08;;;7.70;95.00;;;;;;5061943;28;20028;-48
2022/01/29 03:52:11;;;;;;;5.18;1.80;;;7.70;95.00;;;;;;5060470;28;20082;-48
2022/01/29 03:54:37;;;;;;;7.22;2.10;;;7.70;95.00;;;;;;5058824;28;20028;-48
2022/01/29 03:57:03;;;;;;;3.03;1.90;;;7.70;95.00;;;;;;5063244;28;20086;-48
2022/01/29 03:59:28;;;;;;;6.50;2.15;;;7.70;95.00;;;;;;5057990;28;20031;-48
2022/01/29 04:01:54;;;;;;;6.07;2.97;;;7.70;95.00;;;;;;5061990;28;20404;-48
2022/01/29 04:04:20;;;;;;;2.75;1.75;;;7.70;95.00;;;;;;5058753;28;20021;-48
2022/01/29 04:06:45;;;;;;;9.38;2.25;;;7.70;95.00;;;;;;5061612;28;20044;-48
2022/01/29 04:09:12;;;;;;;5.40;1.80;;;7.70;95.00;;;;;;5060081;28;20351;-48
2022/01/29 04:11:38;;;;;;;5.32;2.35;;;7.70;95.00;;;;;;5059370;28;20340;-48
2022/01/29 04:14:18;;;;;;;8.98;2.47;;;7.70;95.00;;;;;;5058552;28;20037;-48
2022/01/29 04:16:44;;;;;;;4.00;1.87;;;7.70;95.00;;;;;;5057664;28;20115;-48
2022/01/29 04:19:10;;;;;;;4.93;2.15;;;7.70;95.00;;;;;;5060475;28;20355;-48
2022/01/29 04:21:36;;;;;;;2.63;1.80;;;7.70;95.10;;;;;;5058466;28;20033;-48
2022/01/29 04:24:03;;;;;;;6.88;2.53;;;7.70;95.00;;;;;;5061702;28;20024;-48
2022/01/29 04:26:33;;;;;;;5.95;2.28;;;7.70;95.00;;;;;;5060232;28;20103;-48
2022/01/29 04:29:00;;;;;;;1.65;1.00;;;7.70;95.10;;;;;;5057043;28;20029;-48
2022/01/29 04:31:35;;;;;;;5.35;2.58;;;7.70;95.00;;;;;;5059791;28;20035;-48
2022/01/29 04:34:01;;;;;;;4.05;1.95;;;7.70;95.00;;;;;;5058670;28;20061;-48
2022/01/29 04:36:26;;;;;;;3.13;2.03;;;7.70;95.10;;;;;;5062414;28;20071;-48
2022/01/29 04:38:52;;;;;;;2.88;1.45;;;7.70;95.10;;;;;;5060253;28;20024;-48
2022/01/29 04:41:21;;;;;;;1.75;1.42;;;7.70;95.00;;;;;;5060216;28;20116;-48
2022/01/29 04:43:47;;;;;;;2.55;1.67;;;7.70;95.00;;;;;;5054855;28;20028;-48
2022/01/29 04:46:12;;;;;;;6.28;1.67;;;7.70;95.00;;;;;;5058444;28;20020;-48
2022/01/29 04:48:38;;;;;;;2.75;1.45;;;7.70;95.00;;;;;;5062184;28;20093;-48
2022/01/29 04:51:04;;;;;;;3.88;1.70;;;7.70;95.00;;;;;;5060242;28;20128;-48
2022/01/29 04:53:29;;;;;;;2.83;1.58;;;7.60;95.00;;;;;;5060661;28;20028;-48
2022/01/29 04:55:55;;;;;;;6.32;2.15;;;7.70;95.00;;;;;;5058917;28;20052;-48
2022/01/29 04:58:20;;;;;;;3.67;1.60;;;7.70;95.00;;;;;;5060677;28;20039;-48
2022/01/29 05:00:46;;;;;;;2.72;1.92;;;7.70;95.00;;;;;;5058117;28;20028;-48
2022/01/29 05:03:14;;;;;;;7.07;2.00;;;7.70;95.00;;;;;;5058297;28;20524;-48
2022/01/29 05:05:41;;;;;;;4.63;2.17;;;7.70;95.00;;;;;;5057600;28;20029;-48
2022/01/29 05:08:07;;;;;;;6.60;1.98;;;7.70;95.00;;;;;;5059264;28;20175;-48
2022/01/29 05:10:34;;;;;;;4.70;2.08;;;7.70;95.00;;;;;;5059749;28;20025;-48
2022/01/29 05:13:10;;;;;;;4.15;1.95;;;7.70;95.00;;;;;;5059399;28;20021;-47
2022/01/29 05:29:04;;;;;;;4.45;1.42;;;7.60;95.00;;;;;;5057675;28;20036;-48
2022/01/29 05:31:30;;;;;;;6.20;1.90;;;7.70;95.40;;;;;;5057464;28;20029;-49
2022/01/29 05:33:56;;;;;;;6.22;1.88;;;7.60;94.90;;;;;;5059253;28;20485;-48
2022/01/29 05:36:22;;;;;;;4.53;1.75;;;7.70;95.00;;;;;;5059015;28;20029;-48
2022/01/29 05:38:48;;;;;;;7.05;1.90;;;7.60;94.90;;;;;;5060068;28;20035;-48
2022/01/29 05:41:13;;;;;;;5.05;2.08;;;7.70;95.00;;;;;;5061154;28;20025;-49
2022/01/29 05:43:39;;;;;;;3.30;2.08;;;7.60;95.00;;;;;;5059930;28;20228;-48
2022/01/29 05:46:05;;;;;;;5.78;1.83;;;7.70;94.90;;;;;;5061352;28;20067;-48
2022/01/29 05:48:31;;;;;;;5.72;2.20;;;7.60;94.90;;;;;;5061447;28;20127;-48
2022/01/29 05:50:56;;;;;;;6.75;1.80;;;7.70;94.90;;;;;;5063973;28;20029;-48
2022/01/29 05:53:22;;;;;;;4.85;1.80;;;7.70;94.90;;;;;;5063074;28;20028;-48
2022/01/29 05:55:48;;;;;;;4.50;2.35;;;7.60;94.90;;;;;;5062355;28;20032;-48
2022/01/29 05:58:13;;;;;;;4.53;1.65;;;7.60;94.90;;;;;;5064638;28;20124;-48
2022/01/29 06:00:39;;;;;;;5.00;1.98;;;7.70;95.00;;;;;;5059810;28;20025;-48
2022/01/29 06:03:07;;;;;;;6.10;1.30;;;7.60;94.90;;;;;;5063998;28;20028;-48
2022/01/29 06:05:33;;;;;;;2.10;1.38;;;7.70;94.90;;;;;;5058664;28;20071;-48
2022/01/29 06:07:59;;;;;;;6.95;2.45;;;7.70;95.20;;;;;;5065361;28;20028;-48
2022/01/29 06:10:26;;;;;;;5.00;1.65;;;7.60;94.90;;;;;;5062873;28;20025;-48
2022/01/29 06:13:09;;;;;;;3.67;1.55;;;7.60;94.90;;;;;;5062382;28;20028;-48
2022/01/29 06:15:41;;;;;;;1.75;1.40;;;7.70;94.90;;;;;;5059655;28;20369;-48
2022/01/29 06:18:12;;;;;;;2.63;1.70;;;7.60;94.90;;;;;;5062920;28;20152;-48
2022/01/29 06:20:38;;;;;;;4.43;2.00;;;7.70;94.90;;;;;;5063210;28;20025;-48
2022/01/29 06:23:03;;;;;;;4.40;1.60;;;7.70;94.90;;;;;;5064238;28;20024;-48
2022/01/29 06:25:29;;;;;;;1.90;1.45;;;7.60;94.90;;;;;;5059597;28;20407;-48
2022/01/29 06:27:55;;;;;;;3.13;1.73;;;7.60;94.90;;;;;;5064446;28;20134;-48
2022/01/29 06:30:21;;;;;;;4.38;1.40;;;7.70;94.90;;;;;;5058403;28;20028;-48
2022/01/29 06:32:46;;;;;;;2.45;1.50;;;7.70;94.90;;;;;;5062385;28;20120;-48
2022/01/29 06:35:13;;;;;;;3.75;1.70;;;7.70;94.90;;;;;;5064291;28;20035;-48
2022/01/29 06:37:39;;;;;;;2.17;1.67;;;7.70;94.90;;;;;;5059121;28;20040;-48
2022/01/29 06:40:05;;;;;;;6.60;1.67;;;7.70;95.00;;;;;;5060994;28;20090;-49
2022/01/29 06:42:31;;;;;;;5.18;1.85;;;7.70;94.90;;;;;;5063043;28;20063;-48
2022/01/29 06:44:57;;;;;;;2.38;1.65;;;7.70;95.00;;;;;;5059838;28;20343;-48
2022/01/29 06:47:22;;;;;;;4.70;1.17;;;7.70;94.90;;;;;;5059286;28;20453;-48
2022/01/29 06:49:48;;;;;;;4.63;2.00;;;7.60;94.80;;;;;;5058426;28;20045;-48
2022/01/29 06:52:13;;;;;;;4.20;1.90;;;7.70;94.90;;;;;;5059159;28;20423;-48
2022/01/29 06:54:39;;;;;;;3.95;1.50;;;7.60;94.90;;;;;;5060283;28;20044;-48
2022/01/29 06:57:05;;;;;;;3.13;1.98;;;7.60;94.80;;;;;;5060879;28;20036;-48
2022/01/29 06:59:31;;;;;;;2.13;1.20;;;7.70;94.90;;;;;;5059466;28;20028;-48
2022/01/29 07:01:56;;;;;;;3.10;2.10;;;7.60;94.90;;;;;;5062902;28;20032;-48
2022/01/29 07:04:22;;;;;;;7.38;2.00;;;7.70;94.90;;;;;;5061299;28;20025;-48
2022/01/29 07:06:47;;;;;;;1.35;0.95;;;7.70;94.90;;;;;;5061257;28;20078;-48
2022/01/29 07:09:13;;;;;;;3.05;1.70;;;7.60;94.90;;;;;;5062304;28;20079;-48
2022/01/29 07:11:41;;;;;;;4.88;1.92;;;7.70;94.90;;;;;;5059254;28;20029;-48
2022/01/29 07:14:07;;;;;;;5.28;1.65;;;7.70;94.80;;;;;;5063803;28;20104;-48
2022/01/29 07:16:36;;;;;;;9.48;1.92;;;7.60;94.90;;;;;;5057182;28;20131;-48
2022/01/29 07:19:03;;;;;;;4.20;1.55;;;7.70;94.90;;;;;;5060895;28;20129;-48
2022/01/29 07:21:29;;;;;;;6.50;2.10;;;7.70;94.90;;;;;;5052947;28;20436;-47
2022/01/29 07:23:55;;;;;;;4.90;2.35;;;7.70;94.90;;;;;;5059177;28;20055;-48
2022/01/29 07:26:20;;;;;;;2.70;1.90;;;7.70;94.90;;;;;;5062355;28;20025;-48
2022/01/29 07:28:46;;;;;;;3.03;1.92;;;7.70;94.90;;;;;;5060133;28;20029;-48
2022/01/29 07:31:12;;;;;;;5.53;2.00;;;7.70;94.90;;;;;;5056668;28;20032;-48
2022/01/29 07:33:38;;;;;;;7.03;1.38;;;7.70;94.90;;;;;;5060167;28;20032;-48
2022/01/29 07:36:04;;;;;;;4.20;2.05;;;7.70;94.80;;;;;;5057706;28;20359;-48
2022/01/29 07:38:30;;;;;;;2.90;1.30;;;7.70;94.90;;;;;;5060188;28;20032;-48
2022/01/29 07:40:55;;;;;;;4.93;1.77;;;7.70;94.80;;;;;;5060227;28;20025;-48
2022/01/29 07:43:21;;;;;;;3.45;1.63;;;7.70;94.80;;;;;;5062144;28;20020;-48
2022/01/29 07:45:47;;;;;;;4.13;1.10;;;7.70;94.80;;;;;;5060563;28;20469;-48
2022/01/29 07:48:13;;;;;;;6.25;1.85;;;7.70;94.90;;;;;;5060542;28;20020;-48
2022/01/29 07:50:38;;;;;;;2.42;1.60;;;7.70;94.80;;;;;;5061447;28;20457;-48
2022/01/29 07:53:04;;;;;;;2.78;1.50;;;7.70;94.80;;;;;;5060807;28;20017;-48
2022/01/29 07:55:31;;;;;;;3.45;2.03;;;7.70;94.80;;;;;;5060879;28;20546;-49
2022/01/29 07:58:05;;;;;;;2.50;1.25;;;7.70;94.80;;;;;;5058493;28;20040;-48
2022/01/29 08:00:30;;;;;;;1.30;1.10;;;7.70;94.80;;;;;;5057651;28;20374;-48
2022/01/29 08:02:56;;;;;;;4.53;2.08;;;7.70;94.70;;;;;;5061513;28;20032;-48
2022/01/29 08:05:22;;;;;;;5.95;2.03;;;7.60;94.70;;;;;;5059806;28;20111;-48
2022/01/29 08:07:47;;;;;;;2.95;1.60;;;7.70;94.80;;;;;;5059953;28;20358;-48
2022/01/29 08:10:13;;;;;;;3.20;1.95;;;7.70;94.80;;;;;;5057687;28;20025;-48
2022/01/29 08:12:38;;;;;;;4.60;2.65;;;7.70;94.90;;;;;;5061836;28;20026;-48
2022/01/29 08:15:06;;;;;;;2.40;1.90;;;7.70;94.80;;;;;;5059975;28;20133;-48
2022/01/29 08:17:31;;;;;;;2.92;1.85;;;7.70;94.90;;;;;;5055799;28;20517;-48
2022/01/29 08:20:00;;;;;;;3.83;1.98;;;7.70;94.80;;;;;;5056143;28;20041;-48
2022/01/29 08:22:26;;;;;;;4.10;2.50;;;7.70;94.80;;;;;;5060543;28;20063;-48
2022/01/29 08:24:52;;;;;;;3.20;1.83;;;7.70;94.80;;;;;;5062658;28;20117;-48
2022/01/29 08:27:21;;;;;;;0.60;0.47;;;7.70;94.90;;;;;;5059568;28;20036;-48
2022/01/29 08:29:47;;;;;;;1.98;1.08;;;7.70;94.80;;;;;;5061840;28;20025;-48
2022/01/29 08:32:13;;;;;;;2.00;1.25;;;7.70;94.70;;;;;;5055038;28;20244;-48
2022/01/29 08:34:40;;;;;;;7.05;3.45;;;7.70;94.80;;;;;;5061278;28;20082;-48
2022/01/29 08:37:06;;;;;;;2.50;1.45;;;7.70;94.80;;;;;;5057515;28;20036;-48
2022/01/29 08:39:32;;;;;;;6.25;2.03;;;7.70;94.80;;;;;;5060913;28;20033;-48
2022/01/29 08:41:58;;;;;;;5.80;2.40;;;7.70;94.80;;;;;;5059868;28;20074;-48
2022/01/29 08:44:24;;;;;;;4.78;2.83;;;7.70;94.80;;;;;;5059076;28;20104;-48
2022/01/29 08:46:50;;;;;;;2.17;1.23;;;7.70;94.80;;;;;;5062534;28;20024;-48
2022/01/29 08:49:16;;;;;;;9.90;4.13;;;7.70;94.90;;;;;;5064156;28;20028;-48
2022/01/29 08:51:41;;;;;;;4.32;2.15;;;7.70;94.80;;;;;;5061464;28;20082;-48
2022/01/29 08:54:07;;;;;;;7.72;3.65;;;7.70;94.80;;;;;;5062932;28;20027;-48
2022/01/29 08:56:33;;;;;;;3.35;2.63;;;7.70;94.80;;;;;;5066243;28;20477;-48
2022/01/29 08:58:58;;;;;;;11.65;4.90;;;7.70;94.90;;;;;;5065947;28;20401;-48
2022/01/29 09:01:24;;;;;;;11.18;5.18;;;7.70;94.90;;;;;;5054776;28;20089;-49
2022/01/29 09:03:50;;;;;;;8.10;4.50;;;7.70;94.90;;;;;;5066253;28;20025;-49
2022/01/29 09:06:16;;;;;;;13.68;6.18;;;7.70;94.80;;;;;;5060926;28;20029;-48
2022/01/29 09:08:46;;;;;;;12.38;6.10;;;7.70;94.80;;;;;;5068200;28;20528;-48
2022/01/29 09:11:12;;;;;;;10.48;5.15;;;7.70;94.90;;;;;;5065886;28;20029;-48
2022/01/29 09:13:38;;;;;;;12.38;4.75;;;7.70;94.90;;;;;;5063255;28;20090;-48
2022/01/29 09:16:04;;;;;;;9.25;3.53;;;7.70;94.90;;;;;;5053231;28;20396;-49
2022/01/29 09:18:29;;;;;;;7.28;3.75;;;7.70;94.90;;;;;;5059134;28;20025;-48
2022/01/29 09:20:55;;;;;;;14.57;5.72;;;7.70;94.90;;;;;;5055671;28;20500;-48
2022/01/29 09:23:21;;;;;;;14.13;6.88;;;7.70;94.90;;;;;;5057836;28;20029;-48
2022/01/29 09:25:47;;;;;;;10.13;4.05;;;7.70;95.00;;;;;;5061678;28;20078;-47
2022/01/29 09:28:13;;;;;;;14.15;4.72;;;7.70;95.00;;;;;;5061044;28;20341;-48
2022/01/29 09:30:39;;;;;;;11.38;4.22;;;7.80;95.00;;;;;;5057149;28;20459;-48
2022/01/29 09:33:05;;;;;;;18.63;6.30;;;7.70;94.90;;;;;;5057082;28;20484;-48
2022/01/29 09:35:31;;;;;;;10.75;5.10;;;7.80;94.90;;;;;;5061002;28;20052;-48
2022/01/29 09:37:56;;;;;;;14.88;5.30;;;7.80;95.00;;;;;;5058875;28;20442;-48
2022/01/29 09:40:22;;;;;;;17.88;6.85;;;7.80;95.00;;;;;;5061177;28;20032;-48
2022/01/29 09:42:51;;;;;;;12.82;6.78;;;7.80;95.00;;;;;;5053655;28;20036;-48
2022/01/29 09:45:19;;;;;;;16.20;7.25;;;7.80;95.00;;;;;;5059203;28;20039;-48
2022/01/29 09:47:47;;;;;;;24.38;7.82;;;7.80;95.10;;;;;;5055786;28;20036;-47
2022/01/29 09:50:14;;;;;;;7.72;3.10;;;7.70;95.10;;;;;;5059679;28;20021;-48
2022/01/29 09:52:40;;;;;;;8.95;4.85;;;7.80;95.00;;;;;;5055037;28;20041;-49
2022/01/29 09:55:07;;;;;;;3.78;2.63;;;7.80;95.00;;;;;;5061600;28;20357;-48
2022/01/29 09:57:34;;;;;;;5.93;2.17;;;7.80;95.00;;;;;;5059702;28;20037;-48
2022/01/29 10:00:00;;;;;;;6.90;2.95;;;7.80;95.00;;;;;;5056810;28;20029;-48
2022/01/29 10:02:26;;;;;;;1.92;0.77;;;7.80;95.00;;;;;;5055184;28;20355;-48
2022/01/29 10:04:57;;;;;;;6.57;2.78;;;7.80;94.90;;;;;;5056350;28;20036;-48
2022/01/29 10:07:25;;;;;;;13.20;5.88;;;7.80;94.90;;;;;;5058813;28;20032;-48
2022/01/29 10:09:52;;;;;;;9.10;4.28;;;7.80;95.00;;;;;;5058607;28;20024;-47
2022/01/29 10:12:26;;;;;;;17.15;6.75;;;7.90;95.10;;;;;;5057085;28;20033;-48
2022/01/29 10:14:55;;;;;;;3.92;2.45;;;7.80;95.10;;;;;;5057663;28;20030;-47
2022/01/29 10:17:41;;;;;;;15.88;6.20;;;7.80;95.10;;;;;;5053873;28;20458;-48
2022/01/29 10:20:11;;;;;;;8.73;4.32;;;7.80;95.00;;;;;;5057595;28;20347;-48
2022/01/29 10:22:38;;;;;;;11.88;4.05;;;7.80;95.20;;;;;;5059759;28;20021;-48
2022/01/29 10:25:12;;;;;;;2.10;1.55;;;7.90;95.20;;;;;;5058839;28;20033;-48
2022/01/29 10:27:39;;;;;;;4.30;2.35;;;7.90;95.10;;;;;;5056898;28;20438;-48
2022/01/29 10:30:08;;;;;;;9.13;4.13;;;7.90;95.10;;;;;;5061929;28;20052;-48
2022/01/29 10:32:35;;;;;;;18.23;6.68;;;7.90;95.20;;;;;;5058708;28;20029;-48
2022/01/29 10:35:02;;;;;;;8.00;4.03;;;7.90;95.40;;;;;;5062301;28;20035;-48
2022/01/29 10:37:29;;;;;;;6.20;3.92;;;7.90;95.30;;;;;;5064386;28;20036;-48
2022/01/29 10:40:16;;;;;;;6.40;2.25;;;7.90;95.30;;;;;;5060638;28;20028;-48
2022/01/29 10:42:41;;;;;;;13.85;5.25;;;8.00;95.10;;;;;;5063141;28;20041;-48
2022/01/29 10:45:08;;;;;;;5.43;2.67;;;8.00;95.20;;;;;;5061227;28;20104;-48
2022/01/29 10:47:53;;;;;;;14.05;3.90;;;8.00;95.30;;;;;;5057496;28;20531;-48
2022/01/29 10:50:19;;;;;;;6.28;2.58;;;8.00;95.30;;;;;;5059529;28;20024;-49
2022/01/29 10:52:45;;;;;;;9.60;3.53;;;8.00;95.40;;;;;;5061189;28;20032;-48
2022/01/29 10:55:10;;;;;;;11.10;5.15;;;8.00;95.80;;;;;;5064470;28;20503;-48
2022/01/29 10:57:41;;;;;;;9.35;4.10;;;8.00;95.60;;;;;;5063161;28;20068;-48
2022/01/29 11:00:09;;;;;;;2.67;0.98;;;8.00;95.80;;;;;;5061213;28;20087;-48
2022/01/29 11:02:35;;;;;;;2.88;2.47;;;8.00;95.60;;;;;;5056884;28;20045;-48
2022/01/29 11:05:03;;;;;;;11.23;4.85;;;8.10;95.80;;;;;;5061568;28;20051;-48
2022/01/29 11:07:30;;;;;;;7.93;3.45;;;8.10;95.90;;;;;;5059479;28;20039;-48
2022/01/29 11:09:58;;;;;;;4.60;2.75;;;8.10;95.80;;;;;;5061497;28;20029;-48
2022/01/29 11:12:25;;;;;;;1.00;0.95;;;8.10;95.90;;;;;;5062760;28;20334;-48
2022/01/29 11:14:56;;;;;;;5.13;2.28;;;8.20;95.60;;;;;;5063854;28;20029;-48
2022/01/29 11:17:29;;;;;;;7.85;3.40;;;8.20;95.40;;;;;;5060497;28;20032;-48
2022/01/29 11:19:55;;;;;;;3.20;1.23;;;8.20;95.70;;;;;;5062967;28;20060;-48
2022/01/29 11:22:30;;;;;;;8.23;4.93;;;8.20;95.70;;;;;;5062865;28;20017;-48
2022/01/29 11:25:09;;;;;;;5.30;3.17;;;8.20;95.80;;;;;;5060235;28;20063;-48
2022/01/29 11:27:39;;;;;;;2.67;1.48;;;8.20;96.20;;;;;;5058266;28;20033;-48
2022/01/29 11:30:05;;;;;;;4.18;2.05;;;8.20;95.80;;;;;;5062873;28;20484;-48
2022/01/29 11:32:40;;;;;;;1.75;0.82;;;8.20;95.90;;;;;;5058309;28;20037;-48
2022/01/29 11:35:21;;;;;;;3.75;2.03;;;8.30;95.60;;;;;;5062144;28;20096;-48
2022/01/29 11:37:51;;;;;;;9.15;2.40;;;8.30;95.60;;;;;;5059007;28;20031;-48
2022/01/29 11:40:35;;;;;;;0.52;0.52;;;8.30;95.70;;;;;;5056380;28;20032;-48
2022/01/29 11:43:19;;;;;;;13.13;4.68;;;8.30;95.40;;;;;;5059106;28;20055;-48
2022/01/29 11:45:51;;;;;;;7.65;2.95;;;8.30;95.60;;;;;;5061972;28;20074;-48
2022/01/29 11:48:30;;;;;;;4.05;1.95;;;8.30;95.80;;;;;;5055968;28;20360;-48
2022/01/29 11:50:58;;;;;;;7.00;2.97;;;8.30;95.70;;;;;;5062365;28;20074;-48
2022/01/29 11:53:26;;;;;;;4.72;2.83;;;8.30;96.00;;;;;;5059486;28;20025;-48
2022/01/29 11:55:54;;;;;;;10.98;1.42;;;8.30;95.80;;;;;;5062310;28;20111;-48
2022/01/29 11:58:23;;;;;;;3.53;2.13;;;8.40;96.30;;;;;;5062507;28;20473;-48
2022/01/29 12:00:56;;;;;;;4.07;2.38;;;8.40;96.30;;;;;;5059128;28;20021;-48
2022/01/29 12:03:34;;;;;;;3.90;2.00;;;8.40;96.40;;;;;;5057566;28;20063;-48
2022/01/29 12:08:40;;;;;;;3.53;1.40;;;8.40;95.70;;;;;;5060722;28;20051;-48
2022/01/29 12:11:13;;;;;;;4.30;2.38;;;8.40;95.90;;;;;;5054290;28;20442;-48
2022/01/29 12:13:40;;;;;;;10.48;3.55;;;8.40;95.60;;;;;;5061435;28;20553;-48
2022/01/29 12:16:08;;;;;;;4.68;1.75;;;8.40;96.10;;;;;;5059702;28;20032;-48
2022/01/29 12:18:36;;;;;;;0.50;0.50;;;8.40;95.90;;;;;;5053070;28;20083;-48
2022/01/29 12:21:04;;;;;;;3.05;1.63;;;8.40;95.80;;;;;;5060060;28;20063;-48
2022/01/29 12:23:30;;;;;;;1.45;1.20;;;8.40;95.80;;;;;;5061717;28;20033;-48
2022/01/29 12:25:59;;;;;;;1.65;1.45;;;8.40;95.90;;;;;;5061458;28;20440;-48
2022/01/29 12:28:25;;;;;;;13.65;2.60;;;8.50;95.80;;;;;;5058454;28;20028;-48
2022/01/29 12:30:52;;;;;;;1.05;0.95;;;8.50;95.80;;;;;;5061837;28;20051;-48
2022/01/29 12:33:20;;;;;;;7.72;3.60;;;8.50;95.60;;;;;;5054463;28;20021;-48
2022/01/29 12:35:56;;;;;;;6.55;3.03;;;8.50;95.70;;;;;;5062106;28;20074;-48
2022/01/29 12:38:29;;;;;;;3.05;1.73;;;8.50;96.10;;;;;;5057686;28;20421;-49
2022/01/29 12:41:02;;;;;;;7.65;3.97;;;8.50;95.70;;;;;;5060167;28;20047;-48
2022/01/29 12:44:20;;;;;;;6.57;3.45;;;8.50;96.10;;;;;;5059890;28;20065;-48
2022/01/29 12:46:25;;;;;;;5.80;3.00;;;8.50;96.10;;;;;;5066308;28;20033;-48
2022/01/29 12:49:10;;;;;;;4.75;2.05;;;8.50;95.80;;;;;;5056693;28;20128;-48
2022/01/29 12:51:57;;;;;;;6.38;1.95;;;8.50;95.90;;;;;;5054901;28;20051;-48
2022/01/29 12:54:25;;;;;;;5.30;2.20;;;8.50;95.50;;;;;;5060890;28;20108;-48
2022/01/29 12:56:51;;;;;;;5.10;3.15;;;8.50;95.90;;;;;;5059419;28;20124;-48
2022/01/29 12:59:17;;;;;;;6.32;2.00;;;8.50;96.20;;;;;;5059271;28;20117;-48
2022/01/29 13:01:45;;;;;;;7.05;2.60;;;8.50;96.00;;;;;;5060933;28;20032;-48
2022/01/29 13:04:13;;;;;;;6.20;2.83;;;8.50;95.90;;;;;;5050898;28;20028;-48
2022/01/29 13:06:40;;;;;;;5.40;2.90;;;8.50;95.90;;;;;;5058128;28;20029;-48
2022/01/29 13:09:21;;;;;;;5.93;2.67;;;8.50;96.10;;;;;;5061097;28;20471;-48
2022/01/29 13:11:55;;;;;;;1.60;0.90;;;8.50;95.70;;;;;;5057475;28;20036;-48
2022/01/29 13:14:21;;;;;;;5.50;2.83;;;8.50;95.60;;;;;;5061905;28;20453;-49